• Join FlightAware (Why Join?)
  • Login
  • US Flag 
07:35AM EST


 

Airport Tracker/Info


-or-


 

Live Flight TrackerFlight Track Log ✈ ASQ5678 ✈ 25-Jun-2013 ✈ KEWR - KCVG

Flight Track Log - Related Links

Times and Time Zones

All times are in EDT time to prevent confusion due to time zone crossing. See the ASQ5678 flight status page for this flight to view local times or setup timezone preferences in your user account.

Time Position Orientation Groundspeed Altitude Reporting Facility
EDT Latitude Longitude Course Direction KTS MPH feet Rate Location/Type
08:52PM 40.6500 -74.1833 270° West 190 219 1,600  Level New York TRACON
08:53PM 40.6167 -74.2500 237° Southwest 227 261 3,100 1,740 Climbing New York TRACON
08:54PM 40.6000 -74.3167 252° West 232 267 5,100 2,160 Climbing New York TRACON
08:55PM 40.6834 -74.6753 270° West  Level FlightAware Approximate
08:55PM 40.6167 -74.4000 285° West 245 282 7,300  Level New York TRACON
08:56PM 40.6834 -74.8025 270° West  Level FlightAware Approximate
08:56PM 40.6167 -74.4833 270° West 244 281 9,700  Level New York TRACON
08:57PM 40.6833 -74.9297 270° West  Level FlightAware Approximate
08:58PM 40.6419 -74.6436 282° West 260 299 13,300  Level New York Center
08:59PM 40.6528 -74.7511 278° West 265 305 14,400 720 Climbing New York Center
09:00PM 40.6494 -74.8547 268° West 300 345 14,800 480 Climbing New York Center
09:01PM 40.6097 -74.9728 246° West 346 398 15,400 840 Climbing New York Center
09:02PM 40.5614 -75.1008 244° Southwest 357 411 16,500 1,080 Climbing New York Center
09:03PM 40.5264 -75.1969 244° Southwest 357 411 17,600 1,260 Climbing New York Center
09:04PM 40.4842 -75.3225 246° West 350 403 19,100 1,200 Climbing New York Center
09:05PM 40.4400 -75.4394 244° Southwest 350 403 20,100 900 Climbing New York Center
09:06PM 40.3956 -75.5592 244° Southwest 361 415 21,000 900 Climbing New York Center
09:07PM 40.3511 -75.6814 245° Southwest 367 422 22,000 900 Climbing New York Center
09:08PM 40.3064 -75.8033 244° Southwest 373 429 22,900 960 Climbing New York Center
09:09PM 40.2128 -76.0506 244° Southwest 376 433 24,800 900 Climbing Washington Center
09:11PM 40.1664 -76.1722 244° Southwest 376 433 25,700 900 Climbing Washington Center
09:11PM 40.1178 -76.2967 243° Southwest 381 438 26,700 960 Climbing Washington Center
09:12PM 40.0669 -76.4128 240° Southwest 381 438 27,600 840 Climbing Washington Center
09:14PM 40.0247 -76.5044 239° Southwest 381 438 28,400 900 Climbing Washington Center
09:15PM 39.9611 -76.6364 238° Southwest 381 438 29,500 1,020 Climbing Washington Center
09:15PM 39.9039 -76.7464 236° Southwest 381 438 30,500 960 Climbing Washington Center
09:16PM 39.8506 -76.8672 240° Southwest 381 438 31,400 900 Climbing Washington Center
09:18PM 39.7931 -76.9822 237° Southwest 381 438 32,400 900 Climbing Washington Center
09:19PM 39.7397 -77.1000 240° Southwest 386 444 33,300 780 Climbing Washington Center
09:19PM 39.6839 -77.2200 239° Southwest 381 438 34,000 300 Climbing Washington Center
09:20PM 39.6258 -77.3428 238° Southwest 386 444 34,000  Level Washington Center
09:21PM 39.5658 -77.4678 238° Southwest 400 460 34,000  Level Washington Center
09:23PM 39.5033 -77.5981 238° Southwest 417 480 34,000  Level Washington Center
09:24PM 39.4425 -77.7306 239° Southwest 429 494 34,000  Level Washington Center
09:25PM 39.3819 -77.8631 239° Southwest 429 494 34,000  Level Washington Center
09:25PM 39.3272 -77.9956 242° Southwest 424 488 34,000  Level Washington Center
09:26PM 39.2764 -78.1281 244° Southwest 419 482 34,000 -60 Level Washington Center
09:27PM 39.2236 -78.2600 243° Southwest 419 482 33,900  Descending Washington Center
09:28PM 39.1664 -78.3944 241° Southwest 425 489 34,000  Climbing Washington Center
09:29PM 39.1153 -78.5292 244° Southwest 425 489 34,000  Level Washington Center
09:31PM 39.0619 -78.6578 242° Southwest 420 483 34,000  Level Washington Center
09:32PM 39.0125 -78.7919 245° Southwest 420 483 34,000  Level Washington Center
09:33PM 38.9878 -78.9381 258° West 420 483 34,000  Level Washington Center
09:34PM 38.9692 -79.0839 261° West 420 483 34,000  Level Washington Center
09:34PM 38.9481 -79.2325 260° West 420 483 34,000  Level Washington Center
09:35PM 38.9289 -79.3783 260° West 425 489 34,000  Level Washington Center
09:37PM 38.9075 -79.5264 260° West 430 495 34,000  Level Washington Center
09:37PM 38.8878 -79.6775 261° West 430 495 34,000  Level Washington Center
09:38PM 38.8661 -79.8231 259° West 430 495 34,000  Level Washington Center
09:39PM 38.8533 -79.8878 256° West 419 482 34,000  Level Indianapolis Center
09:40PM 38.8272 -80.0647 259° West 421 484 34,000  Level Indianapolis Center
09:41PM 38.8156 -80.2144 264° West 422 486 34,000  Level Indianapolis Center
09:42PM 38.8131 -80.3619 269° West 414 476 34,000  Level Indianapolis Center
09:43PM 38.8083 -80.5108 268° West 417 480 34,000  Level Indianapolis Center
09:44PM 38.8039 -80.6625 268° West 424 488 34,000  Level Indianapolis Center
09:45PM 38.7836 -80.8081 260° West 415 478 34,000  Level Indianapolis Center
09:46PM 38.7578 -80.9486 257° West 408 470 34,000 -180 Level Indianapolis Center
09:47PM 38.7319 -81.0897 257° West 405 466 33,700 -540 Descending Indianapolis Center
09:48PM 38.7017 -81.2578 257° West 403 464 33,000 -360 Descending Indianapolis Center
09:49PM 38.6772 -81.3925 257° West 402 463 33,000 -300 Level Indianapolis Center
09:50PM 38.6514 -81.5531 258° West 414 476 32,400 -540 Descending Indianapolis Center
09:51PM 38.6319 -81.6742 258° West 422 486 32,000 -240 Descending Indianapolis Center
09:52PM 38.6075 -81.8517 260° West 422 486 32,000  Level Indianapolis Center
09:53PM 38.5856 -82.0014 259° West 427 491 32,000  Level Indianapolis Center
09:54PM 38.5644 -82.1489 260° West 424 488 32,000  Level Indianapolis Center
09:55PM 38.5433 -82.2950 260° West 420 483 32,000 -360 Level Indianapolis Center
09:56PM 38.5219 -82.4400 259° West 417 480 31,300 -900 Descending Indianapolis Center
09:57PM 38.4972 -82.6047 259° West 418 481 30,200 -1,080 Descending Indianapolis Center
09:59PM 38.4753 -82.7506 259° West 419 482 29,100 -1,080 Descending Indianapolis Center
10:00PM 38.4525 -82.8994 259° West 425 489 28,100 -1,140 Descending Indianapolis Center
10:01PM 38.4297 -83.0483 259° West 428 493 26,800 -1,380 Descending Indianapolis Center
10:02PM 38.4056 -83.2025 259° West 438 504 25,300 -1,560 Descending Indianapolis Center
10:03PM 38.3828 -83.3522 259° West 436 502 23,700 -2,220 Descending Indianapolis Center
10:04PM 38.3883 -83.4897 273° West 401 461 20,900 -2,880 Descending Indianapolis Center
10:05PM 38.4461 -83.6036 303° West 380 437 17,900 -3,180 Descending Indianapolis Center
10:06PM 38.5114 -83.7283 304° West 363 418 14,400 -3,180 Descending Indianapolis Center
10:07PM 38.5658 -83.8331 304° West 353 406 11,400 -2,100 Descending Indianapolis Center
10:08PM 38.6158 -83.9292 304° West 326 375 10,100 -780 Descending Indianapolis Center
10:09PM 38.6697 -84.0297 304° West 324 373 9,900 -120 Descending Indianapolis Center
10:10PM 38.7219 -84.1311 303° West 334 384 9,900  Level Indianapolis Center
10:11PM 38.7750 -84.2331 304° West 339 390 9,900  Level Indianapolis Center
10:12PM 38.8281 -84.3369 303° West 343 395 9,900  Level Indianapolis Center
10:13PM 38.8808 -84.4406 303° West 343 395 9,900  Level Indianapolis Center
10:14PM 38.9439 -84.5264 313° West 332 382 9,900 -720 Level Indianapolis Center
10:15PM 39.0219 -84.5394 353° North 287 330 8,500 -1,620 Descending Indianapolis Center
10:16PM 39.0992 -84.5417 359° North 276 318 6,600 -1,920 Descending Indianapolis Center
10:17PM 39.1736 -84.5414 360° North 268 308 4,600 -1,680 Descending Indianapolis Center
10:18PM 39.1953 -84.6150 291° West 247 284 3,200 -1,380 Descending Indianapolis Center